sensor_id;sensor_type;location;lat;lon;timestamp;P1;durP1;ratioP1;P2;durP2;ratioP2
37715;SDS011;23562;50.540;12.504;2024-02-16T00:00:58;5.22;;;2.05;;
37715;SDS011;23562;50.540;12.504;2024-02-16T00:03:23;4.30;;;2.05;;
37715;SDS011;23562;50.540;12.504;2024-02-16T00:05:48;4.80;;;2.27;;
37715;SDS011;23562;50.540;12.504;2024-02-16T00:08:16;4.25;;;2.00;;
37715;SDS011;23562;50.540;12.504;2024-02-16T00:10:41;3.90;;;2.10;;
37715;SDS011;23562;50.540;12.504;2024-02-16T00:13:07;4.18;;;2.20;;
37715;SDS011;23562;50.540;12.504;2024-02-16T00:15:32;3.75;;;2.20;;
37715;SDS011;23562;50.540;12.504;2024-02-16T00:17:57;4.55;;;2.20;;
37715;SDS011;23562;50.540;12.504;2024-02-16T00:20:23;3.88;;;2.40;;
37715;SDS011;23562;50.540;12.504;2024-02-16T00:22:49;7.30;;;2.60;;
37715;SDS011;23562;50.540;12.504;2024-02-16T00:25:14;4.53;;;2.47;;
37715;SDS011;23562;50.540;12.504;2024-02-16T00:27:40;4.20;;;2.55;;
37715;SDS011;23562;50.540;12.504;2024-02-16T00:30:05;4.27;;;2.50;;
37715;SDS011;23562;50.540;12.504;2024-02-16T00:32:31;4.03;;;2.50;;
37715;SDS011;23562;50.540;12.504;2024-02-16T00:34:56;5.43;;;2.90;;
37715;SDS011;23562;50.540;12.504;2024-02-16T00:37:22;6.22;;;2.80;;
37715;SDS011;23562;50.540;12.504;2024-02-16T00:39:47;4.75;;;3.05;;
37715;SDS011;23562;50.540;12.504;2024-02-16T00:42:12;5.80;;;2.55;;
37715;SDS011;23562;50.540;12.504;2024-02-16T00:44:37;3.63;;;2.67;;
37715;SDS011;23562;50.540;12.504;2024-02-16T00:47:02;4.80;;;2.55;;
37715;SDS011;23562;50.540;12.504;2024-02-16T00:49:29;5.18;;;2.20;;
37715;SDS011;23562;50.540;12.504;2024-02-16T00:51:54;4.23;;;2.47;;
37715;SDS011;23562;50.540;12.504;2024-02-16T00:54:19;4.72;;;2.75;;
37715;SDS011;23562;50.540;12.504;2024-02-16T00:56:45;3.08;;;2.15;;
37715;SDS011;23562;50.540;12.504;2024-02-16T00:59:10;4.75;;;2.65;;
37715;SDS011;23562;50.540;12.504;2024-02-16T01:01:35;10.45;;;2.60;;
37715;SDS011;23562;50.540;12.504;2024-02-16T01:04:01;3.75;;;2.20;;
37715;SDS011;23562;50.540;12.504;2024-02-16T01:06:27;5.63;;;2.17;;
37715;SDS011;23562;50.540;12.504;2024-02-16T01:08:52;4.13;;;2.13;;
37715;SDS011;23562;50.540;12.504;2024-02-16T01:11:17;4.05;;;2.00;;
37715;SDS011;23562;50.540;12.504;2024-02-16T01:13:44;3.30;;;2.10;;
37715;SDS011;23562;50.540;12.504;2024-02-16T01:16:10;2.58;;;1.73;;
37715;SDS011;23562;50.540;12.504;2024-02-16T01:18:35;3.55;;;2.00;;
37715;SDS011;23562;50.540;12.504;2024-02-16T01:21:02;2.60;;;1.63;;
37715;SDS011;23562;50.540;12.504;2024-02-16T01:23:28;3.10;;;1.70;;
37715;SDS011;23562;50.540;12.504;2024-02-16T01:25:53;4.18;;;1.50;;
37715;SDS011;23562;50.540;12.504;2024-02-16T01:28:18;2.93;;;1.53;;
37715;SDS011;23562;50.540;12.504;2024-02-16T01:30:43;2.35;;;1.30;;
37715;SDS011;23562;50.540;12.504;2024-02-16T01:33:09;2.80;;;1.43;;
37715;SDS011;23562;50.540;12.504;2024-02-16T01:35:34;2.28;;;1.30;;
37715;SDS011;23562;50.540;12.504;2024-02-16T01:37:59;2.95;;;1.30;;
37715;SDS011;23562;50.540;12.504;2024-02-16T01:40:25;2.35;;;1.35;;
37715;SDS011;23562;50.540;12.504;2024-02-16T01:42:51;2.42;;;1.35;;
37715;SDS011;23562;50.540;12.504;2024-02-16T01:45:16;2.80;;;1.20;;
37715;SDS011;23562;50.540;12.504;2024-02-16T01:47:41;2.73;;;1.13;;
37715;SDS011;23562;50.540;12.504;2024-02-16T01:50:08;2.30;;;1.20;;
37715;SDS011;23562;50.540;12.504;2024-02-16T01:52:35;3.22;;;1.30;;
37715;SDS011;23562;50.540;12.504;2024-02-16T01:55:02;2.45;;;1.30;;
37715;SDS011;23562;50.540;12.504;2024-02-16T01:57:28;2.13;;;1.10;;
37715;SDS011;23562;50.540;12.504;2024-02-16T01:59:54;1.55;;;1.10;;
37715;SDS011;23562;50.540;12.504;2024-02-16T02:02:19;3.10;;;1.20;;
37715;SDS011;23562;50.540;12.504;2024-02-16T02:04:44;2.17;;;1.20;;
37715;SDS011;23562;50.540;12.504;2024-02-16T02:07:13;2.58;;;0.90;;
37715;SDS011;23562;50.540;12.504;2024-02-16T02:09:39;2.60;;;1.05;;
37715;SDS011;23562;50.540;12.504;2024-02-16T02:12:04;1.53;;;1.07;;
37715;SDS011;23562;50.540;12.504;2024-02-16T02:14:29;2.83;;;1.10;;
37715;SDS011;23562;50.540;12.504;2024-02-16T02:16:54;2.03;;;1.10;;
37715;SDS011;23562;50.540;12.504;2024-02-16T02:19:19;2.30;;;1.42;;
37715;SDS011;23562;50.540;12.504;2024-02-16T02:21:45;2.10;;;1.23;;
37715;SDS011;23562;50.540;12.504;2024-02-16T02:24:10;4.72;;;1.50;;
37715;SDS011;23562;50.540;12.504;2024-02-16T02:26:35;2.63;;;1.20;;
37715;SDS011;23562;50.540;12.504;2024-02-16T02:29:00;2.03;;;1.27;;
37715;SDS011;23562;50.540;12.504;2024-02-16T02:31:26;1.90;;;1.25;;
37715;SDS011;23562;50.540;12.504;2024-02-16T02:33:51;1.60;;;1.17;;
37715;SDS011;23562;50.540;12.504;2024-02-16T02:36:16;3.47;;;1.23;;
37715;SDS011;23562;50.540;12.504;2024-02-16T02:38:41;2.27;;;1.27;;
37715;SDS011;23562;50.540;12.504;2024-02-16T02:41:06;3.33;;;1.45;;
37715;SDS011;23562;50.540;12.504;2024-02-16T02:43:31;1.73;;;1.40;;
37715;SDS011;23562;50.540;12.504;2024-02-16T02:45:56;1.52;;;1.20;;
37715;SDS011;23562;50.540;12.504;2024-02-16T02:48:21;4.40;;;1.50;;
37715;SDS011;23562;50.540;12.504;2024-02-16T02:50:47;2.07;;;1.30;;
37715;SDS011;23562;50.540;12.504;2024-02-16T02:53:12;1.90;;;1.50;;
37715;SDS011;23562;50.540;12.504;2024-02-16T02:55:37;1.92;;;1.40;;
37715;SDS011;23562;50.540;12.504;2024-02-16T02:58:02;3.05;;;1.73;;
37715;SDS011;23562;50.540;12.504;2024-02-16T03:00:28;2.97;;;1.52;;
37715;SDS011;23562;50.540;12.504;2024-02-16T03:02:53;4.87;;;1.60;;
37715;SDS011;23562;50.540;12.504;2024-02-16T03:05:18;4.30;;;2.08;;
37715;SDS011;23562;50.540;12.504;2024-02-16T03:07:45;3.47;;;1.58;;
37715;SDS011;23562;50.540;12.504;2024-02-16T03:10:10;2.47;;;1.75;;
37715;SDS011;23562;50.540;12.504;2024-02-16T03:12:35;3.90;;;1.83;;
37715;SDS011;23562;50.540;12.504;2024-02-16T03:15:00;4.40;;;1.70;;
37715;SDS011;23562;50.540;12.504;2024-02-16T03:17:25;3.03;;;1.85;;
37715;SDS011;23562;50.540;12.504;2024-02-16T03:19:50;5.47;;;2.03;;
37715;SDS011;23562;50.540;12.504;2024-02-16T03:22:15;4.10;;;1.70;;
37715;SDS011;23562;50.540;12.504;2024-02-16T03:24:41;3.33;;;1.73;;
37715;SDS011;23562;50.540;12.504;2024-02-16T03:27:06;4.32;;;1.80;;
37715;SDS011;23562;50.540;12.504;2024-02-16T03:29:31;2.80;;;1.30;;
37715;SDS011;23562;50.540;12.504;2024-02-16T03:31:56;4.22;;;1.70;;
37715;SDS011;23562;50.540;12.504;2024-02-16T03:34:21;2.00;;;1.50;;
37715;SDS011;23562;50.540;12.504;2024-02-16T03:36:46;2.45;;;1.50;;
37715;SDS011;23562;50.540;12.504;2024-02-16T03:39:11;2.33;;;1.50;;
37715;SDS011;23562;50.540;12.504;2024-02-16T03:41:36;4.10;;;1.70;;
37715;SDS011;23562;50.540;12.504;2024-02-16T03:44:02;1.90;;;1.40;;
37715;SDS011;23562;50.540;12.504;2024-02-16T03:46:27;2.35;;;1.50;;
37715;SDS011;23562;50.540;12.504;2024-02-16T03:48:52;2.70;;;1.40;;
37715;SDS011;23562;50.540;12.504;2024-02-16T03:51:18;2.90;;;1.38;;
37715;SDS011;23562;50.540;12.504;2024-02-16T03:53:43;2.03;;;1.57;;
37715;SDS011;23562;50.540;12.504;2024-02-16T03:56:10;2.22;;;1.67;;
37715;SDS011;23562;50.540;12.504;2024-02-16T03:58:35;2.77;;;1.50;;
37715;SDS011;23562;50.540;12.504;2024-02-16T04:01:01;2.28;;;1.33;;
37715;SDS011;23562;50.540;12.504;2024-02-16T04:03:26;3.13;;;1.50;;
37715;SDS011;23562;50.540;12.504;2024-02-16T04:05:51;2.07;;;1.50;;
37715;SDS011;23562;50.540;12.504;2024-02-16T04:08:17;3.13;;;1.50;;
37715;SDS011;23562;50.540;12.504;2024-02-16T04:10:44;4.15;;;1.60;;
37715;SDS011;23562;50.540;12.504;2024-02-16T04:13:10;2.53;;;1.45;;
37715;SDS011;23562;50.540;12.504;2024-02-16T04:15:35;2.10;;;1.40;;
37715;SDS011;23562;50.540;12.504;2024-02-16T04:18:00;2.03;;;1.40;;
37715;SDS011;23562;50.540;12.504;2024-02-16T04:20:25;3.03;;;1.73;;
37715;SDS011;23562;50.540;12.504;2024-02-16T04:22:50;3.30;;;1.25;;
37715;SDS011;23562;50.540;12.504;2024-02-16T04:25:15;2.58;;;1.52;;
37715;SDS011;23562;50.540;12.504;2024-02-16T04:27:41;2.00;;;1.53;;
37715;SDS011;23562;50.540;12.504;2024-02-16T04:30:06;1.83;;;1.35;;
37715;SDS011;23562;50.540;12.504;2024-02-16T04:32:31;2.38;;;1.25;;
37715;SDS011;23562;50.540;12.504;2024-02-16T04:34:56;2.20;;;1.23;;
37715;SDS011;23562;50.540;12.504;2024-02-16T04:37:22;2.28;;;1.40;;
37715;SDS011;23562;50.540;12.504;2024-02-16T04:39:48;2.70;;;1.63;;
37715;SDS011;23562;50.540;12.504;2024-02-16T04:42:13;3.25;;;1.48;;
37715;SDS011;23562;50.540;12.504;2024-02-16T04:44:38;1.63;;;1.27;;
37715;SDS011;23562;50.540;12.504;2024-02-16T04:47:03;1.30;;;1.20;;
37715;SDS011;23562;50.540;12.504;2024-02-16T04:49:29;1.95;;;1.20;;
37715;SDS011;23562;50.540;12.504;2024-02-16T04:51:54;3.10;;;1.17;;
37715;SDS011;23562;50.540;12.504;2024-02-16T04:54:19;1.92;;;1.25;;
37715;SDS011;23562;50.540;12.504;2024-02-16T04:56:44;1.73;;;1.20;;
37715;SDS011;23562;50.540;12.504;2024-02-16T04:59:09;1.83;;;1.23;;
37715;SDS011;23562;50.540;12.504;2024-02-16T05:01:34;2.65;;;1.30;;
37715;SDS011;23562;50.540;12.504;2024-02-16T05:04:00;2.67;;;1.25;;
37715;SDS011;23562;50.540;12.504;2024-02-16T05:06:26;4.60;;;1.30;;
37715;SDS011;23562;50.540;12.504;2024-02-16T05:08:51;2.05;;;1.33;;
37715;SDS011;23562;50.540;12.504;2024-02-16T05:11:16;1.60;;;1.10;;
37715;SDS011;23562;50.540;12.504;2024-02-16T05:13:42;2.28;;;1.30;;
37715;SDS011;23562;50.540;12.504;2024-02-16T05:16:10;2.70;;;1.33;;
37715;SDS011;23562;50.540;12.504;2024-02-16T05:18:36;1.48;;;1.10;;
37715;SDS011;23562;50.540;12.504;2024-02-16T05:21:01;1.65;;;1.10;;
37715;SDS011;23562;50.540;12.504;2024-02-16T05:23:26;1.95;;;1.30;;
37715;SDS011;23562;50.540;12.504;2024-02-16T05:25:51;2.50;;;1.20;;
37715;SDS011;23562;50.540;12.504;2024-02-16T05:28:16;3.13;;;1.10;;
37715;SDS011;23562;50.540;12.504;2024-02-16T05:30:42;1.98;;;1.10;;
37715;SDS011;23562;50.540;12.504;2024-02-16T05:33:07;2.00;;;1.13;;
37715;SDS011;23562;50.540;12.504;2024-02-16T05:35:32;1.38;;;1.05;;
37715;SDS011;23562;50.540;12.504;2024-02-16T05:37:58;1.20;;;1.00;;
37715;SDS011;23562;50.540;12.504;2024-02-16T05:40:26;2.60;;;1.40;;
37715;SDS011;23562;50.540;12.504;2024-02-16T05:42:55;2.30;;;1.10;;
37715;SDS011;23562;50.540;12.504;2024-02-16T05:45:23;1.33;;;1.10;;
37715;SDS011;23562;50.540;12.504;2024-02-16T05:47:48;3.47;;;1.10;;
37715;SDS011;23562;50.540;12.504;2024-02-16T05:50:14;2.03;;;1.13;;
37715;SDS011;23562;50.540;12.504;2024-02-16T05:52:40;1.02;;;0.93;;
37715;SDS011;23562;50.540;12.504;2024-02-16T05:55:06;3.08;;;1.23;;
37715;SDS011;23562;50.540;12.504;2024-02-16T05:57:31;1.83;;;1.05;;
37715;SDS011;23562;50.540;12.504;2024-02-16T05:59:56;2.40;;;1.20;;
37715;SDS011;23562;50.540;12.504;2024-02-16T06:02:22;1.20;;;0.88;;
37715;SDS011;23562;50.540;12.504;2024-02-16T06:04:50;3.47;;;1.30;;
37715;SDS011;23562;50.540;12.504;2024-02-16T06:07:16;1.63;;;1.15;;
37715;SDS011;23562;50.540;12.504;2024-02-16T06:09:41;2.30;;;0.90;;
37715;SDS011;23562;50.540;12.504;2024-02-16T06:12:06;1.47;;;0.80;;
37715;SDS011;23562;50.540;12.504;2024-02-16T06:14:32;33.90;;;18.10;;
37715;SDS011;23562;50.540;12.504;2024-02-16T06:16:57;84.97;;;42.80;;
37715;SDS011;23562;50.540;12.504;2024-02-16T06:19:23;98.87;;;54.43;;
37715;SDS011;23562;50.540;12.504;2024-02-16T06:21:48;48.60;;;24.58;;
37715;SDS011;23562;50.540;12.504;2024-02-16T06:24:13;18.10;;;10.53;;
37715;SDS011;23562;50.540;12.504;2024-02-16T06:26:38;12.23;;;9.25;;
37715;SDS011;23562;50.540;12.504;2024-02-16T06:29:03;3.83;;;2.70;;
37715;SDS011;23562;50.540;12.504;2024-02-16T06:31:29;2.42;;;1.65;;
37715;SDS011;23562;50.540;12.504;2024-02-16T06:33:54;3.27;;;1.60;;
37715;SDS011;23562;50.540;12.504;2024-02-16T06:36:19;2.80;;;1.67;;
37715;SDS011;23562;50.540;12.504;2024-02-16T06:38:44;4.30;;;1.30;;
37715;SDS011;23562;50.540;12.504;2024-02-16T06:41:09;2.30;;;1.40;;
37715;SDS011;23562;50.540;12.504;2024-02-16T06:43:35;3.08;;;1.50;;
37715;SDS011;23562;50.540;12.504;2024-02-16T06:46:00;2.42;;;1.35;;
37715;SDS011;23562;50.540;12.504;2024-02-16T06:48:25;1.70;;;1.30;;
37715;SDS011;23562;50.540;12.504;2024-02-16T06:50:50;2.22;;;1.20;;
37715;SDS011;23562;50.540;12.504;2024-02-16T06:53:15;1.48;;;1.30;;
37715;SDS011;23562;50.540;12.504;2024-02-16T06:55:41;2.30;;;1.30;;
37715;SDS011;23562;50.540;12.504;2024-02-16T06:58:06;1.77;;;1.30;;
37715;SDS011;23562;50.540;12.504;2024-02-16T07:00:31;2.53;;;1.38;;
37715;SDS011;23562;50.540;12.504;2024-02-16T07:02:56;3.30;;;1.10;;
37715;SDS011;23562;50.540;12.504;2024-02-16T07:05:21;2.40;;;1.10;;
37715;SDS011;23562;50.540;12.504;2024-02-16T07:07:47;2.28;;;0.90;;
37715;SDS011;23562;50.540;12.504;2024-02-16T07:10:12;2.53;;;1.00;;
37715;SDS011;23562;50.540;12.504;2024-02-16T07:12:38;1.75;;;1.10;;
37715;SDS011;23562;50.540;12.504;2024-02-16T07:15:04;2.00;;;1.20;;
37715;SDS011;23562;50.540;12.504;2024-02-16T07:17:29;3.35;;;1.40;;
37715;SDS011;23562;50.540;12.504;2024-02-16T07:19:54;3.70;;;1.10;;
37715;SDS011;23562;50.540;12.504;2024-02-16T07:22:19;2.72;;;1.40;;
37715;SDS011;23562;50.540;12.504;2024-02-16T07:24:44;1.77;;;1.20;;
37715;SDS011;23562;50.540;12.504;2024-02-16T07:27:09;3.00;;;1.27;;
37715;SDS011;23562;50.540;12.504;2024-02-16T07:29:35;2.47;;;1.20;;
37715;SDS011;23562;50.540;12.504;2024-02-16T07:32:03;2.42;;;1.48;;
37715;SDS011;23562;50.540;12.504;2024-02-16T07:34:28;1.60;;;1.10;;
37715;SDS011;23562;50.540;12.504;2024-02-16T07:36:53;3.63;;;1.50;;
37715;SDS011;23562;50.540;12.504;2024-02-16T07:39:19;2.20;;;1.40;;
37715;SDS011;23562;50.540;12.504;2024-02-16T07:41:47;4.05;;;2.22;;
37715;SDS011;23562;50.540;12.504;2024-02-16T07:44:12;2.70;;;1.60;;
37715;SDS011;23562;50.540;12.504;2024-02-16T07:46:40;2.90;;;1.52;;
37715;SDS011;23562;50.540;12.504;2024-02-16T07:49:06;2.10;;;1.50;;
37715;SDS011;23562;50.540;12.504;2024-02-16T07:51:31;2.03;;;1.30;;
37715;SDS011;23562;50.540;12.504;2024-02-16T07:53:56;1.67;;;1.30;;
37715;SDS011;23562;50.540;12.504;2024-02-16T07:56:21;2.93;;;1.50;;
37715;SDS011;23562;50.540;12.504;2024-02-16T07:58:46;3.10;;;1.75;;
37715;SDS011;23562;50.540;12.504;2024-02-16T08:01:12;2.45;;;1.58;;
37715;SDS011;23562;50.540;12.504;2024-02-16T08:03:40;2.65;;;1.60;;
37715;SDS011;23562;50.540;12.504;2024-02-16T08:06:05;1.98;;;1.77;;
37715;SDS011;23562;50.540;12.504;2024-02-16T08:08:30;2.57;;;1.40;;
37715;SDS011;23562;50.540;12.504;2024-02-16T08:10:56;3.28;;;1.40;;
37715;SDS011;23562;50.540;12.504;2024-02-16T08:13:21;2.03;;;1.17;;
37715;SDS011;23562;50.540;12.504;2024-02-16T08:15:46;4.28;;;1.20;;
37715;SDS011;23562;50.540;12.504;2024-02-16T08:18:12;2.70;;;1.15;;
37715;SDS011;23562;50.540;12.504;2024-02-16T08:20:38;2.03;;;1.40;;
37715;SDS011;23562;50.540;12.504;2024-02-16T08:23:03;3.50;;;2.22;;
37715;SDS011;23562;50.540;12.504;2024-02-16T08:25:29;3.08;;;1.50;;
37715;SDS011;23562;50.540;12.504;2024-02-16T08:27:55;5.30;;;1.40;;
37715;SDS011;23562;50.540;12.504;2024-02-16T08:30:20;1.70;;;1.30;;
37715;SDS011;23562;50.540;12.504;2024-02-16T08:32:45;2.00;;;1.80;;
37715;SDS011;23562;50.540;12.504;2024-02-16T08:35:10;1.97;;;1.37;;
37715;SDS011;23562;50.540;12.504;2024-02-16T08:37:36;3.78;;;2.35;;
37715;SDS011;23562;50.540;12.504;2024-02-16T08:40:01;2.80;;;1.85;;
37715;SDS011;23562;50.540;12.504;2024-02-16T08:42:26;1.50;;;1.20;;
37715;SDS011;23562;50.540;12.504;2024-02-16T08:44:51;4.05;;;3.03;;
37715;SDS011;23562;50.540;12.504;2024-02-16T08:47:18;3.83;;;2.30;;
37715;SDS011;23562;50.540;12.504;2024-02-16T08:49:43;3.08;;;1.90;;
37715;SDS011;23562;50.540;12.504;2024-02-16T08:52:08;3.67;;;2.40;;
37715;SDS011;23562;50.540;12.504;2024-02-16T08:54:34;3.00;;;2.63;;
37715;SDS011;23562;50.540;12.504;2024-02-16T08:56:59;3.13;;;2.72;;
37715;SDS011;23562;50.540;12.504;2024-02-16T08:59:24;1.70;;;1.40;;
37715;SDS011;23562;50.540;12.504;2024-02-16T09:01:50;1.98;;;1.52;;
37715;SDS011;23562;50.540;12.504;2024-02-16T09:04:15;2.20;;;2.00;;
37715;SDS011;23562;50.540;12.504;2024-02-16T09:06:40;1.60;;;1.23;;
37715;SDS011;23562;50.540;12.504;2024-02-16T09:09:05;1.45;;;1.20;;
37715;SDS011;23562;50.540;12.504;2024-02-16T09:11:34;2.83;;;1.30;;
37715;SDS011;23562;50.540;12.504;2024-02-16T09:13:59;1.15;;;1.00;;
37715;SDS011;23562;50.540;12.504;2024-02-16T09:16:24;2.23;;;1.37;;
37715;SDS011;23562;50.540;12.504;2024-02-16T09:18:49;1.25;;;1.00;;
37715;SDS011;23562;50.540;12.504;2024-02-16T09:21:14;1.40;;;1.30;;
37715;SDS011;23562;50.540;12.504;2024-02-16T09:23:40;1.17;;;1.03;;
37715;SDS011;23562;50.540;12.504;2024-02-16T09:26:05;1.27;;;1.10;;
37715;SDS011;23562;50.540;12.504;2024-02-16T09:28:30;2.07;;;1.33;;
37715;SDS011;23562;50.540;12.504;2024-02-16T09:30:56;1.60;;;1.20;;
37715;SDS011;23562;50.540;12.504;2024-02-16T09:33:21;1.80;;;1.30;;
37715;SDS011;23562;50.540;12.504;2024-02-16T09:35:47;1.33;;;0.98;;
37715;SDS011;23562;50.540;12.504;2024-02-16T09:38:12;1.58;;;1.20;;
37715;SDS011;23562;50.540;12.504;2024-02-16T09:40:37;2.23;;;1.30;;
37715;SDS011;23562;50.540;12.504;2024-02-16T09:43:02;1.40;;;0.97;;
37715;SDS011;23562;50.540;12.504;2024-02-16T09:45:28;1.77;;;1.00;;
37715;SDS011;23562;50.540;12.504;2024-02-16T09:47:54;2.13;;;1.33;;
37715;SDS011;23562;50.540;12.504;2024-02-16T09:50:20;1.50;;;1.10;;
37715;SDS011;23562;50.540;12.504;2024-02-16T09:52:47;1.30;;;1.10;;
37715;SDS011;23562;50.540;12.504;2024-02-16T09:55:12;1.55;;;1.20;;
37715;SDS011;23562;50.540;12.504;2024-02-16T09:57:37;3.22;;;1.10;;
37715;SDS011;23562;50.540;12.504;2024-02-16T10:00:03;1.95;;;1.20;;
37715;SDS011;23562;50.540;12.504;2024-02-16T10:02:38;1.50;;;1.30;;
37715;SDS011;23562;50.540;12.504;2024-02-16T10:05:09;2.17;;;1.30;;
37715;SDS011;23562;50.540;12.504;2024-02-16T10:07:34;2.90;;;1.83;;
37715;SDS011;23562;50.540;12.504;2024-02-16T10:09:59;1.60;;;1.20;;
37715;SDS011;23562;50.540;12.504;2024-02-16T10:12:24;1.67;;;1.30;;
37715;SDS011;23562;50.540;12.504;2024-02-16T10:14:56;2.65;;;1.33;;
37715;SDS011;23562;50.540;12.504;2024-02-16T10:17:24;1.90;;;1.30;;
37715;SDS011;23562;50.540;12.504;2024-02-16T10:19:56;2.23;;;1.47;;
37715;SDS011;23562;50.540;12.504;2024-02-16T10:22:21;1.60;;;1.20;;
37715;SDS011;23562;50.540;12.504;2024-02-16T10:24:48;6.10;;;4.95;;
37715;SDS011;23562;50.540;12.504;2024-02-16T10:27:15;3.53;;;2.90;;
37715;SDS011;23562;50.540;12.504;2024-02-16T10:29:42;7.30;;;6.00;;
37715;SDS011;23562;50.540;12.504;2024-02-16T10:32:08;5.57;;;3.55;;
37715;SDS011;23562;50.540;12.504;2024-02-16T10:34:34;4.70;;;4.20;;
37715;SDS011;23562;50.540;12.504;2024-02-16T10:36:59;2.00;;;1.30;;
37715;SDS011;23562;50.540;12.504;2024-02-16T10:39:25;2.15;;;1.35;;
37715;SDS011;23562;50.540;12.504;2024-02-16T10:41:50;1.27;;;1.00;;
37715;SDS011;23562;50.540;12.504;2024-02-16T10:44:16;1.58;;;1.40;;
37715;SDS011;23562;50.540;12.504;2024-02-16T10:46:41;3.15;;;1.48;;
37715;SDS011;23562;50.540;12.504;2024-02-16T10:49:06;2.73;;;2.23;;
37715;SDS011;23562;50.540;12.504;2024-02-16T10:51:36;2.87;;;2.23;;
37715;SDS011;23562;50.540;12.504;2024-02-16T10:54:01;2.03;;;1.58;;
37715;SDS011;23562;50.540;12.504;2024-02-16T10:56:33;1.48;;;1.30;;
37715;SDS011;23562;50.540;12.504;2024-02-16T10:59:02;2.15;;;1.30;;
37715;SDS011;23562;50.540;12.504;2024-02-16T11:01:27;2.38;;;1.80;;
37715;SDS011;23562;50.540;12.504;2024-02-16T11:04:00;2.75;;;1.60;;
37715;SDS011;23562;50.540;12.504;2024-02-16T11:06:25;1.50;;;1.30;;
37715;SDS011;23562;50.540;12.504;2024-02-16T11:08:50;1.55;;;1.27;;
37715;SDS011;23562;50.540;12.504;2024-02-16T11:11:22;4.43;;;3.17;;
37715;SDS011;23562;50.540;12.504;2024-02-16T11:13:47;2.92;;;1.80;;
37715;SDS011;23562;50.540;12.504;2024-02-16T11:16:12;2.50;;;2.28;;
37715;SDS011;23562;50.540;12.504;2024-02-16T11:18:39;4.05;;;1.40;;
37715;SDS011;23562;50.540;12.504;2024-02-16T11:21:05;1.88;;;1.30;;
37715;SDS011;23562;50.540;12.504;2024-02-16T11:23:32;3.88;;;2.15;;
37715;SDS011;23562;50.540;12.504;2024-02-16T11:26:05;2.53;;;1.60;;
37715;SDS011;23562;50.540;12.504;2024-02-16T11:28:36;3.55;;;2.00;;
37715;SDS011;23562;50.540;12.504;2024-02-16T11:31:01;2.33;;;1.30;;
37715;SDS011;23562;50.540;12.504;2024-02-16T11:33:27;3.60;;;1.60;;
37715;SDS011;23562;50.540;12.504;2024-02-16T11:35:56;2.28;;;1.35;;
37715;SDS011;23562;50.540;12.504;2024-02-16T11:38:22;2.30;;;1.40;;
37715;SDS011;23562;50.540;12.504;2024-02-16T11:40:54;1.75;;;1.20;;
37715;SDS011;23562;50.540;12.504;2024-02-16T11:43:20;2.13;;;1.20;;
37715;SDS011;23562;50.540;12.504;2024-02-16T11:45:45;2.85;;;1.40;;
37715;SDS011;23562;50.540;12.504;2024-02-16T11:48:10;1.55;;;1.33;;
37715;SDS011;23562;50.540;12.504;2024-02-16T11:50:36;1.73;;;1.38;;
37715;SDS011;23562;50.540;12.504;2024-02-16T11:53:02;2.87;;;1.30;;
37715;SDS011;23562;50.540;12.504;2024-02-16T11:55:27;1.87;;;1.30;;
37715;SDS011;23562;50.540;12.504;2024-02-16T11:57:53;1.63;;;1.20;;
37715;SDS011;23562;50.540;12.504;2024-02-16T12:00:19;2.17;;;1.33;;
37715;SDS011;23562;50.540;12.504;2024-02-16T12:02:44;1.73;;;1.20;;
37715;SDS011;23562;50.540;12.504;2024-02-16T12:05:13;1.52;;;1.30;;
37715;SDS011;23562;50.540;12.504;2024-02-16T12:07:38;2.38;;;1.20;;
37715;SDS011;23562;50.540;12.504;2024-02-16T12:10:06;2.80;;;1.70;;
37715;SDS011;23562;50.540;12.504;2024-02-16T12:12:32;2.67;;;2.00;;
37715;SDS011;23562;50.540;12.504;2024-02-16T12:14:58;2.10;;;1.38;;
37715;SDS011;23562;50.540;12.504;2024-02-16T12:17:23;2.63;;;1.75;;
37715;SDS011;23562;50.540;12.504;2024-02-16T12:19:49;2.92;;;1.60;;
37715;SDS011;23562;50.540;12.504;2024-02-16T12:22:18;2.38;;;1.58;;
37715;SDS011;23562;50.540;12.504;2024-02-16T12:24:44;2.75;;;1.90;;
37715;SDS011;23562;50.540;12.504;2024-02-16T12:27:09;3.35;;;2.30;;
37715;SDS011;23562;50.540;12.504;2024-02-16T12:29:34;2.30;;;1.60;;
37715;SDS011;23562;50.540;12.504;2024-02-16T12:31:59;4.15;;;1.70;;
37715;SDS011;23562;50.540;12.504;2024-02-16T12:34:25;2.97;;;2.00;;
37715;SDS011;23562;50.540;12.504;2024-02-16T12:36:50;2.38;;;1.70;;
37715;SDS011;23562;50.540;12.504;2024-02-16T12:39:15;2.30;;;1.60;;
37715;SDS011;23562;50.540;12.504;2024-02-16T12:41:41;2.73;;;2.00;;
37715;SDS011;23562;50.540;12.504;2024-02-16T12:44:07;2.35;;;1.70;;
37715;SDS011;23562;50.540;12.504;2024-02-16T12:46:33;7.87;;;3.50;;
37715;SDS011;23562;50.540;12.504;2024-02-16T12:48:58;2.88;;;1.92;;
37715;SDS011;23562;50.540;12.504;2024-02-16T12:51:24;4.40;;;1.53;;
37715;SDS011;23562;50.540;12.504;2024-02-16T12:53:49;2.97;;;1.73;;
37715;SDS011;23562;50.540;12.504;2024-02-16T12:56:14;2.10;;;1.30;;
37715;SDS011;23562;50.540;12.504;2024-02-16T12:58:39;2.20;;;1.60;;
37715;SDS011;23562;50.540;12.504;2024-02-16T13:01:05;2.40;;;1.65;;
37715;SDS011;23562;50.540;12.504;2024-02-16T13:03:36;2.45;;;1.50;;
37715;SDS011;23562;50.540;12.504;2024-02-16T13:06:02;1.90;;;1.60;;
37715;SDS011;23562;50.540;12.504;2024-02-16T13:08:27;2.72;;;1.50;;
37715;SDS011;23562;50.540;12.504;2024-02-16T13:10:53;2.08;;;1.50;;
37715;SDS011;23562;50.540;12.504;2024-02-16T13:13:18;3.00;;;1.52;;
37715;SDS011;23562;50.540;12.504;2024-02-16T13:15:43;2.42;;;1.60;;
37715;SDS011;23562;50.540;12.504;2024-02-16T13:18:08;1.95;;;1.45;;
37715;SDS011;23562;50.540;12.504;2024-02-16T13:20:34;3.67;;;1.88;;
37715;SDS011;23562;50.540;12.504;2024-02-16T13:23:00;2.58;;;1.83;;
37715;SDS011;23562;50.540;12.504;2024-02-16T13:25:25;4.43;;;2.17;;
37715;SDS011;23562;50.540;12.504;2024-02-16T13:27:51;3.97;;;2.57;;
37715;SDS011;23562;50.540;12.504;2024-02-16T13:30:16;5.40;;;3.20;;
37715;SDS011;23562;50.540;12.504;2024-02-16T13:32:41;4.47;;;3.30;;
37715;SDS011;23562;50.540;12.504;2024-02-16T13:35:06;4.32;;;3.05;;
37715;SDS011;23562;50.540;12.504;2024-02-16T13:37:32;3.60;;;2.67;;
37715;SDS011;23562;50.540;12.504;2024-02-16T13:39:57;6.47;;;4.50;;
37715;SDS011;23562;50.540;12.504;2024-02-16T13:42:22;5.30;;;4.40;;
37715;SDS011;23562;50.540;12.504;2024-02-16T13:44:47;5.40;;;4.88;;
37715;SDS011;23562;50.540;12.504;2024-02-16T13:47:12;6.07;;;2.83;;
37715;SDS011;23562;50.540;12.504;2024-02-16T13:49:37;6.05;;;4.47;;
37715;SDS011;23562;50.540;12.504;2024-02-16T13:52:03;8.43;;;5.80;;
37715;SDS011;23562;50.540;12.504;2024-02-16T13:54:28;4.18;;;3.13;;
37715;SDS011;23562;50.540;12.504;2024-02-16T13:56:53;6.28;;;3.10;;
37715;SDS011;23562;50.540;12.504;2024-02-16T13:59:18;3.85;;;2.78;;
37715;SDS011;23562;50.540;12.504;2024-02-16T14:01:44;3.85;;;2.17;;
37715;SDS011;23562;50.540;12.504;2024-02-16T14:04:11;5.30;;;2.10;;
37715;SDS011;23562;50.540;12.504;2024-02-16T14:06:40;3.90;;;2.17;;
37715;SDS011;23562;50.540;12.504;2024-02-16T14:09:05;4.57;;;2.10;;
37715;SDS011;23562;50.540;12.504;2024-02-16T14:11:34;4.35;;;2.45;;
37715;SDS011;23562;50.540;12.504;2024-02-16T14:14:00;5.13;;;3.72;;
37715;SDS011;23562;50.540;12.504;2024-02-16T14:16:25;4.77;;;2.70;;
37715;SDS011;23562;50.540;12.504;2024-02-16T14:18:50;4.70;;;3.13;;
37715;SDS011;23562;50.540;12.504;2024-02-16T14:21:17;3.92;;;2.70;;
37715;SDS011;23562;50.540;12.504;2024-02-16T14:23:42;6.80;;;2.90;;